Flight Track Log - Related Links

Times and Time Zones

All times are in EDT time to prevent confusion due to time zone crossing. See the SKW4472 flight status page for this flight to view local times or setup timezone preferences in your user account.

Time Position Orientation Groundspeed Altitude Reporting Facility
EDT Latitude Longitude Course Direction KTS MPH feet Rate Location/Type
Wed 07:47:48 PM 35.0333 -89.9833 288° West 156 180 800  Level KMEM
Wed 07:48:30 PM 35.0000 -89.9833 180° South 159 183 2,100 1,750 Climbing KMEM
Wed 07:49:24 PM 34.9500 -90.0167 209° Southwest 229 264 3,600 2,550 Climbing KMEM
Wed 07:50:00 PM 35.1543 -90.7012 279° West  Level FlightAware Approximate
Wed 07:50:30 PM 34.9500 -90.1000 270° West 265 305 7,200  Level KMEM
Wed 07:51:00 PM 35.2131 -90.9393 292° West  Level FlightAware Approximate
Wed 07:51:29 PM 34.9822 -90.2075 290° West 288 331 9,200  Level Memphis Center
Wed 07:52:00 PM 35.2852 -91.1739 288° West  Level FlightAware Approximate
Wed 07:52:29 PM 35.0136 -90.2936 294° West 327 376 11,700  Level Memphis Center
Wed 07:53:00 PM 35.3474 -91.4129 288° West  Level FlightAware Approximate
Wed 07:53:29 PM 35.0450 -90.3925 291° West 322 371 13,700  Level Memphis Center
Wed 07:54:29 PM 35.0803 -90.5042 291° West 334 384 16,000 2,300 Climbing Memphis Center
Wed 07:55:29 PM 35.1156 -90.6083 293° West 345 397 18,300 2,100 Climbing Memphis Center
Wed 07:56:29 PM 35.1633 -90.7203 298° West 357 411 20,200 1,900 Climbing Memphis Center
Wed 07:57:29 PM 35.2089 -90.8322 297° West 364 419 22,100 1,900 Climbing Memphis Center
Wed 07:58:29 PM 35.2564 -90.9469 297° West 371 427 24,000 1,550 Climbing Memphis Center
Wed 07:59:29 PM 35.3058 -91.0669 297° West 376 433 25,200 1,050 Climbing Memphis Center
Wed 08:00:29 PM 35.3531 -91.1742 298° West 389 448 26,100 1,100 Climbing Memphis Center
Wed 08:01:29 PM 35.4064 -91.3047 297° West 400 460 27,400 1,500 Climbing Memphis Center
Wed 08:02:29 PM 35.4575 -91.4303 297° West 421 484 29,100 1,700 Climbing Memphis Center
Wed 08:03:29 PM 35.5106 -91.5558 297° West 421 484 30,800 1,450 Climbing Memphis Center
Wed 08:04:29 PM 35.5572 -91.6789 295° West 411 473 32,000 600 Climbing Memphis Center
Wed 08:05:29 PM 35.6103 -91.8075 297° West 411 473 32,000  Level Memphis Center
Wed 08:06:29 PM 35.6628 -91.9336 297° West 411 473 32,000 200 Level Memphis Center
Wed 08:07:29 PM 35.7153 -92.0675 296° West 416 479 32,400 700 Climbing Memphis Center
Wed 08:08:29 PM 35.7678 -92.1939 297° West 421 484 33,400 1,150 Climbing Memphis Center
Wed 08:09:29 PM 35.8178 -92.3231 296° West 421 484 34,700 1,300 Climbing Memphis Center
Wed 08:10:29 PM 35.8681 -92.4497 296° West 421 484 36,000 650 Climbing Memphis Center
Wed 08:11:29 PM 35.9181 -92.5742 296° West 416 479 36,000  Level Memphis Center
Wed 08:12:29 PM 35.9678 -92.7011 296° West 411 473 36,000  Level Memphis Center
Wed 08:13:29 PM 36.0175 -92.8283 296° West 411 473 36,000  Level Memphis Center
Wed 08:14:29 PM 36.0650 -92.9531 295° West 406 467 36,000  Level Memphis Center
Wed 08:15:29 PM 36.1164 -93.0806 297° West 406 467 36,000  Level Memphis Center
Wed 08:16:29 PM 36.1636 -93.2056 295° West 400 460 36,000  Level Memphis Center
Wed 08:17:29 PM 36.2108 -93.3331 295° West 405 466 36,000  Level Memphis Center
Wed 08:18:29 PM 36.2578 -93.4558 295° West 405 466 36,000  Level Memphis Center
Wed 08:19:29 PM 36.3089 -93.5814 297° West 405 466 36,000  Level Memphis Center
Wed 08:20:29 PM 36.3661 -93.6997 301° West 405 466 36,000  Level Memphis Center
Wed 08:22:04 PM 36.4875 -93.8733 311° West 412 474 36,000  Level Kansas City Center
Wed 08:23:07 PM 36.5689 -93.9753 315° West 414 476 36,000  Level Kansas City Center
Wed 08:24:09 PM 36.6486 -94.0792 314° West 416 479 36,000  Level Kansas City Center
Wed 08:25:09 PM 36.7286 -94.1847 313° West 417 480 36,000  Level Kansas City Center
Wed 08:26:11 PM 36.8089 -94.2897 314° West 419 482 36,000  Level Kansas City Center
Wed 08:27:12 PM 36.8900 -94.3933 314° West 418 481 36,000  Level Kansas City Center
Wed 08:28:13 PM 36.9897 -94.5158 316° Northwest 419 482 36,000  Level Kansas City Center
Wed 08:29:14 PM 37.0572 -94.6303 306° West 413 475 36,000  Level Kansas City Center
Wed 08:30:16 PM 37.1306 -94.7414 310° West 412 474 36,000  Level Kansas City Center
Wed 08:31:17 PM 37.2022 -94.8517 309° West 411 473 36,000  Level Kansas City Center
Wed 08:32:18 PM 37.2744 -94.9636 309° West 413 475 36,000  Level Kansas City Center
Wed 08:33:21 PM 37.3475 -95.0758 309° West 416 479 36,000  Level Kansas City Center
Wed 08:34:22 PM 37.4206 -95.1900 309° West 417 480 36,000  Level Kansas City Center
Wed 08:35:22 PM 37.4953 -95.3069 309° West 425 489 36,000  Level Kansas City Center
Wed 08:36:26 PM 37.5861 -95.4475 309° West 430 495 36,000  Level Kansas City Center
Wed 08:37:26 PM 37.6611 -95.5658 309° West 432 497 36,000  Level Kansas City Center
Wed 08:38:26 PM 37.7369 -95.6847 309° West 434 499 36,000  Level Kansas City Center
Wed 08:39:28 PM 37.8125 -95.8083 308° West 440 506 36,000  Level Kansas City Center
Wed 08:40:31 PM 37.8894 -95.9303 309° West 442 509 36,000  Level Kansas City Center
Wed 08:41:30 PM 37.9653 -96.0497 309° West 443 510 36,000  Level Kansas City Center
Wed 08:42:33 PM 38.0378 -96.1653 309° West 446 513 36,000  Level Kansas City Center
Wed 08:43:34 PM 38.1311 -96.3144 309° West 450 518 36,000  Level Kansas City Center
Wed 08:44:35 PM 38.2011 -96.4267 308° West 451 519 36,000  Level Kansas City Center
Wed 08:45:36 PM 38.2861 -96.5658 308° West 456 525 36,000  Level Kansas City Center
Wed 08:46:38 PM 38.3647 -96.6925 308° West 457 526 36,000  Level Kansas City Center
Wed 08:47:39 PM 38.4419 -96.8197 308° West 457 526 36,000  Level Kansas City Center
Wed 08:48:42 PM 38.5200 -96.9464 308° West 457 526 36,000  Level Kansas City Center
Wed 08:49:43 PM 38.6053 -97.0686 312° West 466 536 36,000  Level Kansas City Center
Wed 08:50:43 PM 38.7261 -97.1436 334° Northwest 489 563 36,000  Level Kansas City Center
Wed 08:51:45 PM 38.8931 -97.1517 358° North 506 582 36,000  Level Kansas City Center
Wed 08:52:45 PM 39.0161 -97.1425 North 500 575 36,000  Level Kansas City Center
Wed 08:53:46 PM 39.1697 -97.1300 North 495 570 36,000  Level Kansas City Center
Wed 08:54:50 PM 39.3019 -97.1033 North 507 583 36,000  Level Kansas City Center
Wed 08:55:51 PM 39.4522 -97.0489 16° North 502 578 36,000 148 Level Kansas City Center
Wed 08:56:52 PM 39.5778 -97.0047 15° North 513 590 36,300 744 Climbing Kansas City Center
Wed 08:57:52 PM 39.7158 -96.9550 15° North 516 594 37,500 1,082 Climbing Kansas City Center
Wed 08:58:54 PM 39.8631 -96.8886 19° North 511 588 38,500 778 Climbing Kansas City Center
Wed 08:59:40 PM 39.9406 -96.8211 34° Northeast 502 578 38,900 268 Climbing Minneapolis Center
Wed 09:00:46 PM 40.0803 -96.6944 35° Northeast 507 583 39,000 47 Climbing Minneapolis Center
Wed 09:01:48 PM 40.1978 -96.5878 35° Northeast 512 589 39,000  Level Minneapolis Center
Wed 09:02:50 PM 40.3156 -96.4808 35° Northeast 515 593 39,000  Level Minneapolis Center
Wed 09:03:52 PM 40.4322 -96.3739 35° Northeast 513 590 39,000  Level Minneapolis Center
Wed 09:04:54 PM 40.5739 -96.2431 35° Northeast 518 596 39,000  Level Minneapolis Center
Wed 09:05:56 PM 40.6922 -96.1350 35° Northeast 518 596 39,000 -339 Level Minneapolis Center
Wed 09:06:58 PM 40.8103 -96.0256 35° Northeast 521 600 38,300 -1,016 Descending Minneapolis Center
Wed 09:08:00 PM 40.9242 -95.9217 35° Northeast 509 586 36,900 -1,355 Descending Minneapolis Center
Wed 09:09:02 PM 41.0303 -95.8208 36° Northeast 485 558 35,500 -919 Descending Minneapolis Center
Wed 09:10:04 PM 41.1581 -95.6997 35° Northeast 493 567 35,000 -242 Descending Minneapolis Center
Wed 09:11:06 PM 41.2803 -95.5850 35° Northeast 511 588 35,000  Level Minneapolis Center
Wed 09:12:07 PM 41.3739 -95.4961 35° Northeast 516 594 35,000  Level Minneapolis Center
Wed 09:13:10 PM 41.5164 -95.3600 36° Northeast 527 606 35,000  Level Minneapolis Center
Wed 09:14:11 PM 41.6353 -95.2483 35° Northeast 525 604 35,000  Level Minneapolis Center
Wed 09:15:13 PM 41.7525 -95.1353 36° Northeast 522 601 35,000  Level Minneapolis Center
Wed 09:16:15 PM 41.8944 -94.9975 36° Northeast 522 601 35,000  Level Minneapolis Center
Wed 09:17:17 PM 42.0097 -94.8861 36° Northeast 520 598 35,000  Level Minneapolis Center
Wed 09:18:19 PM 42.1261 -94.7733 36° Northeast 517 595 35,000  Level Minneapolis Center
Wed 09:19:21 PM 42.2428 -94.6592 36° Northeast 519 597 35,000  Level Minneapolis Center
Wed 09:20:23 PM 42.3606 -94.5436 36° Northeast 521 600 35,000  Level Minneapolis Center
Wed 09:21:25 PM 42.4892 -94.4153 36° Northeast 521 600 35,000 -387 Level Minneapolis Center
Wed 09:22:27 PM 42.6047 -94.2981 37° Northeast 521 600 34,200 -878 Descending Minneapolis Center
Wed 09:23:28 PM 42.7206 -94.1761 38° Northeast 529 609 33,200 -585 Descending Minneapolis Center
Wed 09:24:30 PM 42.8308 -94.0522 39° Northeast 520 598 33,000 -97 Descending Minneapolis Center
Wed 09:25:32 PM 42.9456 -93.9281 38° Northeast 527 606 33,000 -919 Level Minneapolis Center
Wed 09:26:34 PM 43.0397 -93.7583 53° Northeast 473 544 31,100 -1,839 Descending Minneapolis Center
Wed 09:27:36 PM 43.0778 -93.6011 72° East 444 511 29,200 -1,984 Descending Minneapolis Center
Wed 09:28:38 PM 43.1117 -93.4422 74° East 437 503 27,000 -1,707 Descending Minneapolis Center
Wed 09:29:39 PM 43.1431 -93.2872 74° East 430 495 25,700 -1,366 Descending Minneapolis Center
Wed 09:30:41 PM 43.2344 -93.1908 38° Northeast 426 490 24,200 -823 Descending Minneapolis Center
Wed 09:31:43 PM 43.3483 -93.2147 351° North 424 488 24,000 -97 Descending Minneapolis Center
Wed 09:32:45 PM 43.4736 -93.3061 332° Northwest 430 495 24,000 -1,073 Level Minneapolis Center
Wed 09:33:46 PM 43.5833 -93.3867 332° Northwest 425 489 21,800 -2,146 Descending Minneapolis Center
Wed 09:34:48 PM 43.6836 -93.4614 332° Northwest 414 476 19,600 -2,177 Descending Minneapolis Center
Wed 09:35:50 PM 43.7892 -93.5039 344° North 408 470 17,300 -2,081 Descending Minneapolis Center
Wed 09:36:52 PM 43.9025 -93.4925 North 409 471 15,300 -1,906 Descending Minneapolis Center
Wed 09:37:15 PM 43.9444 -93.4914 North 393 452 14,600 -1,814 Descending FAA TRACON SMA TRACON (SMA)
Wed 09:37:35 PM 43.9856 -93.4861 North 387 445 14,000 -1,650 Descending FAA TRACON SMA TRACON (SMA)
Wed 09:37:55 PM 44.0186 -93.4828 North 385 443 13,500 -1,800 Descending FAA TRACON SMA TRACON (SMA)
Wed 09:38:15 PM 44.0597 -93.4800 North 385 443 12,800 -1,846 Descending FAA TRACON SMA TRACON (SMA)
Wed 09:38:34 PM 44.0919 -93.4758 North 382 440 12,300 -1,692 Descending FAA TRACON SMA TRACON (SMA)
Wed 09:38:54 PM 44.1244 -93.4731 North 379 436 11,700 -1,650 Descending FAA TRACON SMA TRACON (SMA)
Wed 09:39:14 PM 44.1561 -93.4694 North 375 432 11,200 -1,050 Descending FAA TRACON SMA TRACON (SMA)
Wed 09:39:34 PM 44.1950 -93.4667 North 366 421 11,000 -450 Descending FAA TRACON SMA TRACON (SMA)
Wed 09:39:54 PM 44.2247 -93.4594 10° North 354 407 10,900 -150 Descending FAA TRACON SMA TRACON (SMA)
Wed 09:40:14 PM 44.2528 -93.4456 20° North 349 402 10,900  Level FAA TRACON SMA TRACON (SMA)
Wed 09:40:34 PM 44.2867 -93.4219 27° Northeast 350 403 10,900  Level FAA TRACON SMA TRACON (SMA)
Wed 09:40:54 PM 44.3139 -93.4042 25° Northeast 352 405 10,900  Level FAA TRACON SMA TRACON (SMA)
Wed 09:41:15 PM 44.3414 -93.3850 26° Northeast 355 409 10,900  Level FAA TRACON SMA TRACON (SMA)
Wed 09:41:35 PM 44.3728 -93.3625 27° Northeast 340 391 10,900  Level FAA TRACON SMA TRACON (SMA)
Wed 09:41:55 PM 44.3969 -93.3453 27° Northeast 323 372 10,900  Level FAA TRACON SMA TRACON (SMA)
Wed 09:42:14 PM 44.4214 -93.3283 26° Northeast 318 366 10,900  Level FAA TRACON SMA TRACON (SMA)
Wed 09:42:34 PM 44.4528 -93.3075 25° Northeast 322 371 10,900 150 Level FAA TRACON SMA TRACON (SMA)
Wed 09:42:54 PM 44.4775 -93.2886 29° Northeast 325 374 11,000  Climbing FAA TRACON SMA TRACON (SMA)
Wed 09:43:14 PM 44.5017 -93.2719 26° Northeast 321 369 10,900 -150 Descending FAA TRACON SMA TRACON (SMA)
Wed 09:43:34 PM 44.5317 -93.2506 27° Northeast 315 362 10,900  Level FAA TRACON SMA TRACON (SMA)
Wed 09:43:54 PM 44.5558 -93.2344 25° Northeast 312 359 10,900  Level FAA TRACON SMA TRACON (SMA)
Wed 09:44:14 PM 44.5794 -93.2167 28° Northeast 312 359 10,900 -450 Level FAA TRACON SMA TRACON (SMA)
Wed 09:44:34 PM 44.6092 -93.1964 26° Northeast 311 358 10,600 -1,200 Descending FAA TRACON SMA TRACON (SMA)
Wed 09:44:54 PM 44.6358 -93.1917 North 318 366 10,100 -900 Descending FAA TRACON SMA TRACON (SMA)
Wed 09:45:14 PM 44.6611 -93.2019 344° North 315 362 10,000 -300 Descending FAA TRACON SMA TRACON (SMA)
Wed 09:45:34 PM 44.6897 -93.2194 336° Northwest 294 338 9,900 -600 Descending FAA TRACON SMA TRACON (SMA)
Wed 09:45:54 PM 44.7111 -93.2331 336° Northwest 279 321 9,600 -878 Descending FAA TRACON SMA TRACON (SMA)
Wed 09:46:15 PM 44.7322 -93.2464 336° Northwest 271 312 9,300 -900 Descending FAA TRACON SMA TRACON (SMA)
Wed 09:46:34 PM 44.7578 -93.2628 336° Northwest 263 303 9,000 -1,050 Descending FAA TRACON SMA TRACON (SMA)
Wed 09:46:55 PM 44.7778 -93.2758 335° Northwest 258 297 8,600 -1,024 Descending FAA TRACON SMA TRACON (SMA)
Wed 09:47:15 PM 44.7981 -93.2883 336° Northwest 257 296 8,300 -900 Descending FAA TRACON SMA TRACON (SMA)
Wed 09:47:35 PM 44.8192 -93.3111 323° Northwest 256 295 8,000 -615 Descending FAA TRACON SMA TRACON (SMA)
Wed 09:47:54 PM 44.8325 -93.3333 310° West 243 280 7,900 -154 Descending FAA TRACON SMA TRACON (SMA)
Wed 09:48:14 PM 44.8442 -93.3561 306° West 236 272 7,900  Level FAA TRACON SMA TRACON (SMA)
Wed 09:48:34 PM 44.8567 -93.3778 309° West 232 267 7,900  Level FAA TRACON SMA TRACON (SMA)
Wed 09:48:54 PM 44.8719 -93.4053 308° West 230 265 7,900  Level FAA TRACON SMA TRACON (SMA)
Wed 09:49:14 PM 44.8839 -93.4272 308° West 230 265 7,900  Level FAA TRACON SMA TRACON (SMA)
Wed 09:49:34 PM 44.8958 -93.4494 307° West 229 264 7,900  Level FAA TRACON SMA TRACON (SMA)
Wed 09:49:54 PM 44.9100 -93.4772 306° West 229 264 7,900  Level FAA TRACON SMA TRACON (SMA)
Wed 09:50:14 PM 44.9175 -93.5025 293° West 228 262 7,900  Level FAA TRACON SMA TRACON (SMA)
Wed 09:50:34 PM 44.9233 -93.5281 288° West 223 257 7,900  Level FAA TRACON SMA TRACON (SMA)
Wed 09:50:54 PM 44.9311 -93.5597 289° West 221 254 7,900  Level FAA TRACON SMA TRACON (SMA)
Wed 09:51:14 PM 44.9369 -93.5850 288° West 221 254 7,900  Level FAA TRACON SMA TRACON (SMA)
Wed 09:51:54 PM 44.9506 -93.6428 288° West 225 259 7,900  Level FAA TRACON SMA TRACON (SMA)
Wed 09:52:15 PM 44.9569 -93.6689 289° West 226 260 7,900  Level FAA TRACON SMA TRACON (SMA)
Wed 09:52:34 PM 44.9653 -93.6939 295° West 229 264 7,900  Level FAA TRACON SMA TRACON (SMA)
Wed 09:52:54 PM 44.9803 -93.7225 307° West 234 269 7,900  Level FAA TRACON SMA TRACON (SMA)
Wed 09:53:15 PM 44.9928 -93.7450 308° West 235 270 7,900  Level FAA TRACON SMA TRACON (SMA)
Wed 09:53:35 PM 45.0053 -93.7669 309° West 235 270 7,900  Level FAA TRACON SMA TRACON (SMA)
Wed 09:53:55 PM 45.0283 -93.7808 337° Northwest 244 281 7,900 -450 Level FAA TRACON SMA TRACON (SMA)
Wed 09:54:15 PM 45.0469 -93.7700 22° Northeast 256 295 7,600 -900 Descending FAA TRACON SMA TRACON (SMA)
Wed 09:54:35 PM 45.0575 -93.7464 58° Northeast 250 288 7,300 -923 Descending FAA TRACON SMA TRACON (SMA)
Wed 09:54:54 PM 45.0589 -93.7133 87° East 229 264 7,000 -769 Descending FAA TRACON SMA TRACON (SMA)
Wed 09:55:14 PM 45.0592 -93.6892 89° East 210 242 6,800 -600 Descending FAA TRACON SMA TRACON (SMA)
Wed 09:55:34 PM 45.0603 -93.6664 86° East 194 223 6,600 -600 Descending FAA TRACON SMA TRACON (SMA)
Wed 09:55:54 PM 45.0608 -93.6397 88° East 179 206 6,400 -750 Descending FAA TRACON SMA TRACON (SMA)
Wed 09:56:14 PM 45.0553 -93.6225 115° Southeast 167 192 6,100 -750 Descending FAA TRACON SMA TRACON (SMA)
Wed 09:56:34 PM 45.0483 -93.6058 121° Southeast 161 185 5,900 -300 Descending FAA TRACON SMA TRACON (SMA)
Wed 09:56:54 PM 45.0397 -93.5847 120° Southeast 161 185 5,900  Level FAA TRACON SMA TRACON (SMA)
Wed 09:57:14 PM 45.0319 -93.5683 124° Southeast 161 185 5,900  Level FAA TRACON SMA TRACON (SMA)
Wed 09:57:34 PM 45.0250 -93.5519 121° Southeast 161 185 5,900  Level FAA TRACON SMA TRACON (SMA)
Wed 09:57:54 PM 45.0158 -93.5306 121° Southeast 162 186 5,900 -462 Level FAA TRACON SMA TRACON (SMA)
Wed 09:58:13 PM 45.0086 -93.5142 122° Southeast 162 186 5,600 -900 Descending FAA TRACON SMA TRACON (SMA)
Wed 09:58:34 PM 45.0019 -93.4981 120° Southeast 157 181 5,300 -900 Descending FAA TRACON SMA TRACON (SMA)
Wed 09:58:53 PM 44.9933 -93.4792 123° Southeast 150 173 5,000 -923 Descending FAA TRACON SMA TRACON (SMA)
Wed 09:59:13 PM 44.9867 -93.4642 122° Southeast 147 169 4,700 -878 Descending FAA TRACON SMA TRACON (SMA)
Wed 09:59:34 PM 44.9806 -93.4486 119° Southeast 146 168 4,400 -750 Descending FAA TRACON SMA TRACON (SMA)
Wed 09:59:53 PM 44.9739 -93.4339 123° Southeast 146 168 4,200 -750 Descending FAA TRACON SMA TRACON (SMA)
Wed 10:00:14 PM 44.9656 -93.4147 122° Southeast 148 170 3,900 -900 Descending FAA TRACON SMA TRACON (SMA)
Wed 10:00:33 PM 44.9589 -93.3992 121° Southeast 149 171 3,600 -900 Descending FAA TRACON SMA TRACON (SMA)
Wed 10:00:54 PM 44.9508 -93.3803 121° Southeast 149 171 3,300 -900 Descending FAA TRACON SMA TRACON (SMA)
Wed 10:01:13 PM 44.9442 -93.3644 121° Southeast 151 174 3,000 -750 Descending FAA TRACON SMA TRACON (SMA)
Wed 10:01:34 PM 44.9378 -93.3497 122° Southeast 146 168 2,800 -732 Descending FAA TRACON SMA TRACON (SMA)
Wed 10:01:54 PM 44.9308 -93.3339 122° Southeast 127 146 2,500 -900 Descending FAA TRACON SMA TRACON (SMA)

Login

Don't have an account? Register now (free) for customized features, flight alerts, and more!